• Join FlightAware (Why Join?)
  • Login
  • US Flag 
02:09PM EDT


 

Airport Tracker/Info


-or-


 

Live Flight TrackerFlight Track Log ✈ DAL151 ✈ 29-Jun-2013 ✈ KATL - SPIM / LIM

Flight Track Log - Related Links

Times and Time Zones

All times are in EDT time to prevent confusion due to time zone crossing. See the DAL151 flight status page for this flight to view local times or setup timezone preferences in your user account.

Time Position Orientation Groundspeed Altitude Reporting Facility
EDT Latitude Longitude Course Direction KTS MPH feet Rate Location/Type
05:13PM 33.6370 -84.4270 180° South 15 17  Level FlightAware
05:14PM 33.6370 -84.4230 90° East 28 32 120 Level FlightAware
05:15PM 33.6370 -84.4220 90° East 13 15 120 Level FlightAware
05:15PM 33.6360 -84.4220 180° South 23 26 120 Level FlightAware
05:16PM 33.6360 -84.4200 90° East 32 37 120 Level FlightAware
05:16PM 33.6360 -84.4170 90° East 28 32 120 Level FlightAware
05:17PM 33.6360 -84.4150 90° East 20 23 180 Level FlightAware
05:19PM 33.6360 -84.4140 180° South 10 12 180 Level FlightAware
05:20PM 33.4128 -84.2667 180° South  Level FlightAware Approximate
05:20PM 33.6360 -84.4130 90° East 14 16  Level FlightAware
05:21PM 33.6360 -84.4120 90° East 2 2 300 Level FlightAware
05:22PM 33.6360 -84.4110 90° East 17 20 300 Level FlightAware
05:23PM 33.6360 -84.4100 90° East 2 2 480 Level FlightAware
05:24PM 33.6360 -84.4090 90° East 13 15 720 Level FlightAware
05:24PM 33.6350 -84.4090 180° South 22 25 960 Level FlightAware
05:25PM 33.6350 -84.4200 270° West 115 132 1,140 Level FlightAware
05:26PM 33.6350 -84.4460 270° West 162 186 1,800 3,000 Climbing FlightAware
05:26PM 33.6360 -84.4700 273° West 166 191 2,800 1,500 Climbing FlightAware
05:27PM 33.6350 -84.4990 268° West 193 222 3,300 900 Climbing FlightAware
05:27PM 33.6340 -84.5130 265° West 208 239 3,500 1,020 Climbing FlightAware
05:27PM 33.6330 -84.5490 268° West 233 268 4,000 1,380 Climbing FlightAware
05:28PM 33.6330 -84.5800 270° West 262 302 4,600 2,460 Climbing FlightAware
05:28PM 33.6330 -84.6210 270° West 264 304 5,900 2,700 Climbing FlightAware
05:29PM 33.6170 -84.6740 250° West 266 306 7,700 2,520 Climbing FlightAware
05:29PM 33.6060 -84.6830 214° Southwest 275 316 8,000 2,160 Climbing FlightAware
05:29PM 33.5740 -84.7000 204° Southwest 285 328 9,100 1,860 Climbing FlightAware
05:34PM 33.1900 -84.4550 152° Southeast 378 435 17,600 1,620 Climbing FlightAware
05:35PM 33.1150 -84.4180 158° South 409 471 18,000 1,140 Climbing FlightAware
05:36PM 32.9780 -84.3490 157° South 419 482 20,000 1,380 Climbing FlightAware
05:37PM 32.8830 -84.3020 157° South 427 491 21,100 1,260 Climbing FlightAware
05:38PM 32.8080 -84.2650 157° South 432 497 22,000 1,260 Climbing FlightAware
05:38PM 32.7290 -84.2250 157° South 439 505 22,900 1,140 Climbing FlightAware
05:39PM 32.6540 -84.1880 157° South 444 511 23,600 1,200 Climbing FlightAware
05:40PM 32.5730 -84.1480 157° South 445 512 24,600 1,260 Climbing FlightAware
05:41PM 32.4660 -84.0950 157° South 448 516 25,700 1,080 Climbing FlightAware
05:41PM 32.3990 -84.0620 157° South 453 521 26,300 480 Climbing FlightAware
05:42PM 32.3090 -84.0170 157° South 455 524 26,500 840 Climbing FlightAware
05:43PM 32.2160 -83.9720 158° South 468 539 27,600 1,320 Climbing FlightAware
05:43PM 32.1310 -83.9310 158° South 471 542 28,300 900 Climbing FlightAware
05:44PM 32.0590 -83.8950 157° South 475 547 28,800 660 Climbing FlightAware
05:46PM 31.8958 -83.8175 157° South 478 550 29,700 780 Climbing Jacksonville Center
05:47PM 31.7731 -83.7578 158° South 478 550 30,800 900 Climbing Jacksonville Center
05:48PM 31.6525 -83.6956 156° South 472 543 31,600 900 Climbing Jacksonville Center
05:49PM 31.5131 -83.6308 158° South 483 556 32,700 900 Climbing Jacksonville Center
05:50PM 31.3922 -83.5742 158° South 478 550 33,400 660 Climbing Jacksonville Center
05:51PM 31.2736 -83.5147 157° South 472 543 34,100 660 Climbing Jacksonville Center
05:52PM 31.1528 -83.4581 158° South 472 543 34,800 780 Climbing Jacksonville Center
05:53PM 31.0317 -83.4017 158° South 472 543 35,700 720 Climbing Jacksonville Center
05:54PM 30.9131 -83.3431 157° South 467 537 36,300 480 Climbing Jacksonville Center
05:55PM 30.8089 -83.2917 157° South 467 537 36,700 300 Climbing Jacksonville Center
05:56PM 30.6900 -83.2331 157° South 467 537 37,000 120 Climbing Jacksonville Center
05:57PM 30.5689 -83.1725 157° South 467 537 37,000  Level Jacksonville Center
05:58PM 30.4481 -83.1119 157° South 467 537 37,000  Level Jacksonville Center
05:59PM 30.3311 -83.0539 157° South 467 537 37,000  Level Jacksonville Center
06:00PM 30.2122 -82.9936 156° South 462 532 37,000  Level Jacksonville Center
06:01PM 30.0933 -82.9333 156° South 457 526 37,000  Level Jacksonville Center
06:02PM 29.9575 -82.8711 158° South 469 540 37,000  Level Jacksonville Center
06:03PM 29.8364 -82.8111 157° South 481 554 37,000  Level Jacksonville Center
06:08PM 29.1870 -82.4910 157° South 470 541 37,000  Level FlightAware
06:09PM 29.1190 -82.4580 157° South 470 541 37,000  Level FlightAware
06:09PM 29.0200 -82.4410 171° South 460 529 37,000  Level FlightAware
06:11PM 28.8290 -82.4270 176° South 37,000  Level FlightAware
06:12PM 28.7380 -82.4200 176° South 471 542 37,000  Level FlightAware
06:12PM 28.6460 -82.4140 177° South 472 543 37,000  Level FlightAware
06:13PM 28.5550 -82.4070 176° South 473 544 37,000  Level FlightAware
06:14PM 28.4590 -82.4000 176° South 474 545 37,000  Level FlightAware
06:15PM 28.3047 -82.3903 176° South 477 549 37,000  Level Miami Center
06:20PM 27.6760 -82.2630 176° South 472 543 37,000  Level FlightAware
06:21PM 27.5444 -82.1917 176° South 471 542 37,000  Level Miami Center
06:22PM 27.4019 -82.1525 166° South 477 549 37,000  Level Miami Center
06:23PM 27.2739 -82.1161 166° South 477 549 37,000  Level Miami Center
06:24PM 27.1458 -82.0800 166° South 477 549 37,000  Level Miami Center
06:25PM 27.0319 -82.0492 166° South 471 542 37,000  Level Miami Center
06:30PM 26.4550 -81.8860 166° South 475 547 37,000  Level FlightAware
06:31PM 26.2050 -81.8160 166° South 468 539 37,000  Level FlightAware
06:32PM 26.1260 -81.7950 167° South 477 549 37,000  Level FlightAware
06:33PM 26.0980 -81.7870 166° South 477 549 37,000  Level FlightAware
06:33PM 26.0200 -81.7650 166° South 477 549 37,000  Level FlightAware
06:34PM 25.9360 -81.7420 166° South 476 548 37,000  Level FlightAware
06:35PM 25.7300 -81.6850 166° South 477 549 37,000  Level FlightAware
06:36PM 25.5970 -81.6490 166° South 481 554 37,000  Level FlightAware
06:38PM 25.3800 -81.5890 166° South 482 555 37,000  Level FlightAware
06:38PM 25.2860 -81.5640 166° South 482 555 37,000  Level FlightAware
06:39PM 25.1990 -81.5400 166° South 481 554 37,000  Level FlightAware
06:40PM 25.1110 -81.5170 167° South 482 555 37,000  Level FlightAware
06:41PM 25.0000 -81.4860 166° South 484 557 37,000  Level FlightAware
06:41PM 24.9070 -81.4610 166° South 478 550 37,000  Level FlightAware
06:42PM 24.7490 -81.4180 166° South 479 551 37,000  Level FlightAware
06:49PM 23.9410 -81.2400 169° South 483 556 37,000  Level FlightAware
06:50PM 23.8160 -81.2460 183° South 479 551 37,000  Level FlightAware
06:50PM 23.7020 -81.2520 183° South 470 541 37,000  Level FlightAware
06:52PM 23.5140 -81.2600 182° South 469 540 37,000  Level FlightAware
06:53PM 23.4270 -81.2640 182° South 468 539 37,000  Level FlightAware
06:53PM 23.3370 -81.2690 183° South 469 540 37,000  Level FlightAware
06:54PM 23.2420 -81.2730 182° South 479 551 37,000  Level FlightAware
06:55PM 23.1220 -81.2780 182° South 479 551 37,000  Level FlightAware
06:56PM 23.0300 -81.2830 183° South 468 539 37,000  Level FlightAware
06:56PM 22.9160 -81.2880 182° South 466 536 37,000  Level FlightAware
06:58PM 22.7470 -81.2950 182° South 466 536 37,000  Level FlightAware
07:00PM 22.5187 -81.2640 173° South  Level Estimated
07:01PM 22.3870 -81.2462 173° South  Level Estimated
07:02PM 22.2553 -81.2284 173° South  Level Estimated
07:03PM 22.1236 -81.2107 173° South  Level Estimated
07:04PM 21.9918 -81.1930 173° South  Level Estimated
07:05PM 21.8601 -81.1753 173° South  Level Estimated
07:06PM 21.7284 -81.1577 173° South  Level Estimated
07:07PM 21.5967 -81.1401 173° South  Level Estimated
07:08PM 21.4650 -81.1225 173° South  Level Estimated
07:09PM 21.3332 -81.1049 173° South  Level Estimated
07:10PM 21.2015 -81.0874 173° South  Level Estimated
07:11PM 21.0698 -81.0699 173° South  Level Estimated
07:12PM 20.9380 -81.0525 173° South  Level Estimated
07:13PM 20.8063 -81.0350 173° South  Level Estimated
07:14PM 20.6745 -81.0176 173° South  Level Estimated
07:15PM 20.5428 -81.0003 173° South  Level Estimated
07:16PM 20.4111 -80.9829 173° South  Level Estimated
07:17PM 20.2793 -80.9656 173° South  Level Estimated
07:18PM 20.1476 -80.9483 173° South  Level Estimated
07:19PM 20.0158 -80.9311 173° South  Level Estimated
07:20PM 19.8841 -80.9138 173° South  Level Estimated
07:21PM 19.7523 -80.8967 173° South  Level Estimated
07:22PM 19.6206 -80.8795 173° South  Level Estimated
07:23PM 19.4888 -80.8624 173° South  Level Estimated
07:24PM 19.3571 -80.8453 173° South  Level Estimated
07:25PM 19.2253 -80.8282 173° South  Level Estimated
07:26PM 19.0936 -80.8111 173° South  Level Estimated
07:27PM 18.9618 -80.7941 173° South  Level Estimated
07:28PM 18.8300 -80.7771 173° South  Level Estimated
07:29PM 18.6983 -80.7601 173° South  Level Estimated
07:30PM 18.5665 -80.7432 173° South  Level Estimated
07:31PM 18.4348 -80.7263 173° South  Level Estimated
07:32PM 18.3030 -80.7094 173° South  Level Estimated
07:33PM 18.1712 -80.6925 173° South  Level Estimated
07:34PM 18.0395 -80.6757 173° South  Level Estimated
07:35PM 17.9077 -80.6589 173° South  Level Estimated
07:36PM 17.7759 -80.6421 173° South  Level Estimated
07:37PM 17.6441 -80.6253 173° South  Level Estimated
07:38PM 17.5124 -80.6086 173° South  Level Estimated
07:39PM 17.3806 -80.5918 173° South  Level Estimated
07:40PM 17.2488 -80.5751 173° South  Level Estimated
07:41PM 17.1170 -80.5585 173° South  Level Estimated
07:42PM 16.9853 -80.5418 173° South  Level Estimated
07:43PM 16.8535 -80.5252 173° South  Level Estimated
07:44PM 16.7217 -80.5086 173° South  Level Estimated
07:45PM 16.5899 -80.4920 173° South  Level Estimated
07:46PM 16.4581 -80.4755 173° South  Level Estimated
07:47PM 16.3263 -80.4589 173° South  Level Estimated
07:48PM 16.1945 -80.4424 173° South  Level Estimated
07:49PM 16.0628 -80.4259 173° South  Level Estimated
07:50PM 15.9310 -80.4095 173° South  Level Estimated
07:51PM 15.7992 -80.3931 173° South  Level Estimated
07:52PM 15.6674 -80.3766 173° South  Level Estimated
07:53PM 15.5356 -80.3602 173° South  Level Estimated
07:54PM 15.4038 -80.3438 173° South  Level Estimated
07:55PM 15.2720 -80.3275 173° South  Level Estimated
07:56PM 15.1402 -80.3111 173° South  Level Estimated
07:57PM 15.0084 -80.2948 173° South  Level Estimated
07:58PM 14.8766 -80.2785 173° South  Level Estimated
07:59PM 14.7448 -80.2623 173° South  Level Estimated
08:00PM 14.6130 -80.2460 173° South  Level Estimated
08:01PM 14.4812 -80.2298 173° South  Level Estimated
08:02PM 14.3494 -80.2135 173° South  Level Estimated
08:03PM 14.2176 -80.1973 173° South  Level Estimated
08:04PM 14.0858 -80.1812 173° South  Level Estimated
08:05PM 13.9540 -80.1650 173° South  Level Estimated
08:06PM 13.8222 -80.1488 173° South  Level Estimated
08:07PM 13.6903 -80.1327 173° South  Level Estimated
08:08PM 13.5585 -80.1166 173° South  Level Estimated
08:09PM 13.4267 -80.1005 173° South  Level Estimated
08:10PM 13.2949 -80.0844 173° South  Level Estimated
08:11PM 13.1631 -80.0684 173° South  Level Estimated
08:12PM 13.0313 -80.0524 173° South  Level Estimated
08:13PM 12.8995 -80.0363 173° South  Level Estimated
08:14PM 12.7676 -80.0203 173° South  Level Estimated
08:15PM 12.6358 -80.0043 173° South  Level Estimated
08:16PM 12.5040 -79.9884 173° South  Level Estimated
08:17PM 12.3722 -79.9724 173° South  Level Estimated
08:18PM 12.2404 -79.9565 173° South  Level Estimated
08:19PM 12.1085 -79.9406 173° South  Level Estimated
08:20PM 11.9767 -79.9247 173° South  Level Estimated
08:21PM 11.8449 -79.9088 173° South  Level Estimated
08:22PM 11.7131 -79.8929 173° South  Level Estimated
08:23PM 11.5813 -79.8770 173° South  Level Estimated
08:24PM 11.4494 -79.8612 173° South  Level Estimated
08:25PM 11.3176 -79.8454 173° South  Level Estimated
08:26PM 11.1858 -79.8295 173° South  Level Estimated
08:27PM 11.0539 -79.8137 173° South  Level Estimated
08:28PM 10.9221 -79.7979 173° South  Level Estimated
08:29PM 10.7903 -79.7822 173° South  Level Estimated
08:30PM 10.6584 -79.7664 173° South  Level Estimated
08:31PM 10.5266 -79.7507 173° South  Level Estimated
08:32PM 10.3948 -79.7349 173° South  Level Estimated
08:33PM 10.2629 -79.7192 173° South  Level Estimated
08:34PM 10.1311 -79.7035 173° South  Level Estimated
08:35PM 9.9993 -79.6878 173° South  Level Estimated
08:36PM 9.8674 -79.6721 173° South  Level Estimated
08:37PM 9.7356 -79.6565 173° South  Level Estimated
08:38PM 9.6038 -79.6408 173° South  Level Estimated
08:39PM 9.4719 -79.6252 173° South  Level Estimated
08:40PM 9.3401 -79.6095 173° South  Level Estimated
08:41PM 9.2082 -79.5939 173° South  Level Estimated
08:42PM 9.0764 -79.5783 173° South  Level Estimated
08:43PM 8.9446 -79.5627 173° South  Level Estimated
08:44PM 8.8127 -79.5471 173° South  Level Estimated
08:45PM 8.6809 -79.5315 173° South  Level Estimated
08:46PM 8.5490 -79.5160 173° South  Level Estimated
08:47PM 8.4172 -79.5004 173° South  Level Estimated
08:48PM 8.2854 -79.4849 173° South  Level Estimated
08:49PM 8.1535 -79.4694 173° South  Level Estimated
08:50PM 8.0217 -79.4538 173° South  Level Estimated
08:51PM 7.8898 -79.4383 173° South  Level Estimated
08:52PM 7.7580 -79.4228 173° South  Level Estimated
08:53PM 7.6261 -79.4073 173° South  Level Estimated
08:54PM 7.4943 -79.3919 173° South  Level Estimated
08:55PM 7.3624 -79.3764 173° South  Level Estimated
08:56PM 7.2306 -79.3609 173° South  Level Estimated
08:57PM 7.0987 -79.3455 173° South  Level Estimated
08:58PM 6.9669 -79.3300 173° South  Level Estimated
08:59PM 6.8350 -79.3146 173° South  Level Estimated
09:00PM 6.7032 -79.2992 173° South  Level Estimated
09:01PM 6.5713 -79.2838 173° South  Level Estimated
09:02PM 6.4395 -79.2683 173° South  Level Estimated
09:03PM 6.3076 -79.2529 173° South  Level Estimated
09:04PM 6.1758 -79.2375 173° South  Level Estimated
09:05PM 6.0439 -79.2222 173° South  Level Estimated
09:06PM 5.9121 -79.2068 173° South  Level Estimated
09:07PM 5.7802 -79.1914 173° South  Level Estimated
09:08PM 5.6484 -79.1760 173° South  Level Estimated
09:09PM 5.5165 -79.1607 173° South  Level Estimated
09:10PM 5.3847 -79.1453 173° South  Level Estimated
09:11PM 5.2528 -79.1300 173° South  Level Estimated
09:12PM 5.1209 -79.1146 173° South  Level Estimated
09:13PM 4.9891 -79.0993 173° South  Level Estimated
09:14PM 4.8572 -79.0840 173° South  Level Estimated
09:15PM 4.7254 -79.0686 173° South  Level Estimated
09:16PM 4.5935 -79.0533 173° South  Level Estimated
09:17PM 4.4616 -79.0380 173° South  Level Estimated
09:18PM 4.3298 -79.0227 173° South  Level Estimated
09:19PM 4.1979 -79.0074 173° South  Level Estimated
09:20PM 4.0661 -78.9921 173° South  Level Estimated
09:21PM 3.9342 -78.9769 173° South  Level Estimated
09:22PM 3.8023 -78.9616 173° South  Level Estimated
09:23PM 3.6705 -78.9463 173° South  Level Estimated
09:24PM 3.5386 -78.9310 173° South  Level Estimated
09:25PM 3.4068 -78.9157 173° South  Level Estimated
09:26PM 3.2749 -78.9005 173° South  Level Estimated
09:27PM 3.1430 -78.8852 173° South  Level Estimated
09:28PM 3.0112 -78.8700 173° South  Level Estimated
09:29PM 2.8793 -78.8547 173° South  Level Estimated
09:30PM 2.7475 -78.8395 173° South  Level Estimated
09:31PM 2.6156 -78.8242 173° South  Level Estimated
09:32PM 2.4837 -78.8090 173° South  Level Estimated
09:33PM 2.3519 -78.7937 173° South  Level Estimated
09:34PM 2.2200 -78.7785 173° South  Level Estimated
09:35PM 2.0882 -78.7633 173° South  Level Estimated
09:36PM 1.9563 -78.7480 173° South  Level Estimated
09:37PM 1.8244 -78.7328 173° South  Level Estimated
09:38PM 1.6926 -78.7176 173° South  Level Estimated
09:39PM 1.5607 -78.7023 173° South  Level Estimated
09:40PM 1.4289 -78.6871 173° South  Level Estimated
09:41PM 1.2970 -78.6719 173° South  Level Estimated
09:42PM 1.1651 -78.6567 173° South  Level Estimated
09:43PM 1.0333 -78.6414 173° South  Level Estimated
09:44PM 0.9014 -78.6262 173° South  Level Estimated
09:45PM 0.7696 -78.6110 173° South  Level Estimated
09:46PM 0.6377 -78.5958 173° South  Level Estimated
09:47PM 0.5058 -78.5806 173° South  Level Estimated
09:48PM 0.3740 -78.5654 173° South  Level Estimated
09:49PM 0.2421 -78.5501 173° South  Level Estimated
09:50PM 0.1103 -78.5349 173° South  Level Estimated
09:51PM -0.0216 -78.5197 173° South  Level Estimated
09:52PM -0.1535 -78.5045 173° South  Level Estimated
09:53PM -0.2853 -78.4893 173° South  Level Estimated
09:54PM -0.4172 -78.4741 173° South  Level Estimated
09:55PM -0.5490 -78.4589 173° South  Level Estimated
09:56PM -0.6809 -78.4437 173° South  Level Estimated
09:57PM -0.8128 -78.4284 173° South  Level Estimated
09:57PM -1.4920 -79.8610 173° South 498 573 39,000  Level FlightAware
09:57PM -1.6330 -79.8620 180° South 499 574 39,000  Level FlightAware
09:58PM -0.9446 -78.4132 173° South  Level Estimated
09:58PM -1.7190 -79.8630 181° South 500 575 39,000  Level FlightAware
09:59PM -1.8280 -79.8640 181° South 500 575 39,000  Level FlightAware
10:01PM -2.0461 -79.8062 165° South  Level Estimated
10:02PM -2.1744 -79.7721 165° South  Level Estimated
10:03PM -2.3027 -79.7381 165° South  Level Estimated
10:04PM -2.4310 -79.7040 165° South  Level Estimated
10:05PM -2.5593 -79.6700 165° South  Level Estimated
10:06PM -2.6876 -79.6359 165° South  Level Estimated
10:07PM -2.8159 -79.6018 165° South  Level Estimated
10:08PM -2.9442 -79.5677 165° South  Level Estimated
10:09PM -3.0725 -79.5337 165° South  Level Estimated
10:09PM -3.0960 -79.7450 165° South 499 574 39,000  Level FlightAware
10:09PM -3.2760 -79.7220 173° South 500 575 39,000  Level FlightAware
10:10PM -3.3750 -79.7090 173° South 497 572 39,000  Level FlightAware
10:12PM -3.5490 -79.6870 173° South 495 570 39,000  Level FlightAware
10:12PM -3.6190 -79.6790 173° South 495 570 39,000  Level FlightAware
10:13PM -3.7110 -79.6670 173° South 495 570 39,000  Level FlightAware
10:14PM -3.7830 -79.6590 174° South 495 570 39,000  Level FlightAware
10:14PM -3.8720 -79.6480 173° South 495 570 39,000  Level FlightAware
10:17PM -4.1302 -79.5691 163° South  Level Estimated
10:17PM -4.1640 -79.6120 163° South 495 570 39,000  Level FlightAware
10:20PM -4.4829 -79.5123 163° South  Level Estimated
10:21PM -4.6073 -79.4734 163° South  Level Estimated
10:21PM -4.6230 -79.5550 163° South 495 570 39,000  Level FlightAware
10:24PM -4.9392 -79.4524 162° South  Level Estimated
10:25PM -5.0632 -79.4121 162° South  Level Estimated
10:26PM -5.1872 -79.3719 162° South  Level Estimated
10:27PM -5.3112 -79.3316 162° South  Level Estimated
10:28PM -5.4352 -79.2913 162° South  Level Estimated
10:29PM -5.5591 -79.2510 162° South  Level Estimated
10:30PM -5.6831 -79.2106 162° South  Level Estimated
10:31PM -5.8071 -79.1702 162° South  Level Estimated
10:32PM -5.9311 -79.1299 162° South  Level Estimated
10:33PM -6.0550 -79.0895 162° South  Level Estimated
10:34PM -6.1790 -79.0491 162° South  Level Estimated
10:35PM -6.3030 -79.0086 162° South  Level Estimated
10:36PM -6.4269 -78.9682 162° South  Level Estimated
10:37PM -6.5509 -78.9277 162° South  Level Estimated
10:38PM -6.6748 -78.8872 162° South  Level Estimated
10:39PM -6.7988 -78.8467 162° South  Level Estimated
10:40PM -6.9227 -78.8062 162° South  Level Estimated
10:41PM -7.0467 -78.7656 162° South  Level Estimated
10:42PM -7.1706 -78.7251 162° South  Level Estimated
10:43PM -7.2946 -78.6845 162° South  Level Estimated
10:44PM -7.4185 -78.6438 162° South  Level Estimated
10:45PM -7.5424 -78.6032 162° South  Level Estimated
10:46PM -7.6664 -78.5625 162° South  Level Estimated
10:47PM -7.7903 -78.5218 162° South  Level Estimated
10:48PM -7.9142 -78.4811 162° South  Level Estimated
10:49PM -8.0381 -78.4404 162° South  Level Estimated
10:50PM -8.1621 -78.3996 162° South  Level Estimated
10:51PM -8.2860 -78.3588 162° South  Level Estimated
10:52PM -8.4099 -78.3180 162° South  Level Estimated
10:53PM -8.5338 -78.2772 162° South  Level Estimated
10:54PM -8.6577 -78.2363 162° South  Level Estimated
10:55PM -8.7816 -78.1954 162° South  Level Estimated
10:56PM -8.9054 -78.1545 162° South  Level Estimated
10:57PM -9.0293 -78.1136 162° South  Level Estimated
10:58PM -9.1532 -78.0726 162° South  Level Estimated
10:59PM -9.2771 -78.0316 162° South  Level Estimated
11:00PM -9.4009 -77.9905 162° South  Level Estimated
11:01PM -9.5248 -77.9495 162° South  Level Estimated
11:02PM -9.6487 -77.9084 162° South  Level Estimated
11:03PM -9.7725 -77.8673 162° South  Level Estimated
11:04PM -9.8964 -77.8261 162° South  Level Estimated
11:05PM -10.0202 -77.7849 162° South  Level Estimated
11:06PM -10.1440 -77.7437 162° South  Level Estimated
11:07PM -10.2679 -77.7025 162° South  Level Estimated
11:08PM -10.3917 -77.6612 162° South  Level Estimated
11:09PM -10.5155 -77.6199 162° South  Level Estimated
11:10PM -10.6393 -77.5785 162° South  Level Estimated
11:11PM -10.7632 -77.5371 162° South  Level Estimated
11:12PM -10.8870 -77.4957 162° South  Level Estimated
11:13PM -11.0108 -77.4543 162° South  Level Estimated
11:14PM -11.1346 -77.4128 162° South  Level Estimated
11:14PM -11.5070 -77.3680 162° South 306 352 7,200  Level FlightAware
11:15PM -11.2584 -77.3713 162° South  Level Estimated
11:15PM -11.5390 -77.3520 154° Southeast 306 352 7,200  Level FlightAware
11:17PM -11.7327 -77.2568 154° Southeast  Level Estimated
11:18PM -11.8501 -77.1990 154° Southeast  Level Estimated
11:19PM -11.9675 -77.1411 154° Southeast  Level Estimated
11:20PM -12.0219 -77.1143 154° Southeast  Level Estimated
11:21PM -12.0219 -77.1143 44° Northeast  Level Estimated
11:22PM -12.0219 -77.1143 44° Northeast  Level Estimated
11:23PM -12.0219 -77.1143 44° Northeast  Level Estimated
11:24PM -12.0219 -77.1143 44° Northeast  Level Estimated